• Join FlightAware (Why Join?)
  • Login
  • US Flag 
08:46AM EDT


 

Airport Tracker/Info


-or-


 

Live Flight TrackerFlight Track Log ✈ UPS1121 ✈ 26-Apr-2013 ✈ KBDL - KSDF

Flight Track Log - Related Links

Times and Time Zones

All times are in EDT time to prevent confusion due to time zone crossing. See the UPS1121 flight status page for this flight to view local times or setup timezone preferences in your user account.

Time Position Orientation Groundspeed Altitude Reporting Facility
EDT Latitude Longitude Course Direction KTS MPH feet Rate Location/Type
10:55PM 41.9458 -72.7025 320° Northwest 153 176 1,000  Level Boston Center
10:56PM 41.9936 -72.7558 320° Northwest 169 194 3,400 1,980 Climbing Boston Center
10:57PM 42.0517 -72.7953 333° Northwest 201 231 5,700 2,700 Climbing Boston Center
10:58PM 42.1206 -72.8403 334° Northwest 238 274 8,900 2,100 Climbing Boston Center
11:04PM 42.2440 -73.4880 334° Northwest 407 468 20,100 1,920 Climbing FlightAware
11:05PM 42.2350 -73.5920 263° West 413 475 21,400 1,800 Climbing FlightAware
11:05PM 42.2260 -73.6910 263° West 418 481 22,500 1,560 Climbing FlightAware
11:06PM 42.2170 -73.7820 262° West 422 486 23,400 720 Climbing FlightAware
11:07PM 42.2060 -73.8880 262° West 423 487 23,500 60 Climbing FlightAware
11:07PM 42.1950 -73.9990 262° West 423 487 23,500 1,620 Level FlightAware
11:08PM 42.1840 -74.1380 264° West 437 503 26,000 1,860 Climbing FlightAware
11:09PM 42.1740 -74.2290 262° West 437 503 26,000 1,380 Level FlightAware
11:10PM 42.1450 -74.5340 263° West 451 519 29,300 1,980 Climbing FlightAware
11:11PM 42.1268 -74.7101 262° West 447 514 31,400 1,740 Climbing FlightAware ADS-B
11:12PM 42.1182 -74.7940 262° West 447 514 32,000 540 Climbing FlightAware ADS-B
11:12PM 42.1095 -74.8779 262° West 447 514 32,000  Level FlightAware ADS-B
11:13PM 42.1007 -74.9630 262° West 449 517 32,000  Level FlightAware ADS-B
11:14PM 42.0888 -75.0758 262° West 451 519 32,000  Level FlightAware ADS-B
11:14PM 42.0800 -75.1580 262° West 451 519 32,000  Level FlightAware
11:14PM 42.0770 -75.1870 262° West 452 520 32,000  Level FlightAware ADS-B
11:15PM 42.0670 -75.2710 261° West 450 518 32,000  Level FlightAware
11:15PM 42.0379 -75.3770 250° West 452 520 32,000  Level FlightAware ADS-B
11:16PM 41.9886 -75.4969 241° Southwest 452 520 32,000  Level FlightAware ADS-B
11:17PM 41.9480 -75.5940 241° Southwest 449 517 32,000  Level FlightAware
11:18PM 41.9160 -75.6720 241° Southwest 449 517 32,000  Level FlightAware
11:18PM 41.8760 -75.7680 241° Southwest 446 513 32,000  Level FlightAware
11:19PM 41.8126 -75.9200 241° Southwest 445 512 32,000  Level FlightAware ADS-B
11:20PM 41.7813 -75.9951 241° Southwest 445 512 32,000  Level FlightAware ADS-B
11:20PM 41.7506 -76.0686 241° Southwest 444 511 32,000  Level FlightAware ADS-B
11:21PM 41.7197 -76.1420 241° Southwest 444 511 32,000  Level FlightAware ADS-B
11:21PM 41.6886 -76.2159 241° Southwest 445 512 32,000  Level FlightAware ADS-B
11:22PM 41.6556 -76.2940 241° Southwest 445 512 32,000  Level FlightAware ADS-B
11:22PM 41.6253 -76.3657 241° Southwest 443 510 32,000  Level FlightAware ADS-B
11:23PM 41.5944 -76.4387 241° Southwest 444 511 32,000  Level FlightAware ADS-B
11:23PM 41.5640 -76.5101 240° Southwest 444 511 32,000  Level FlightAware ADS-B
11:24PM 41.5314 -76.5866 240° Southwest 443 510 32,000  Level FlightAware ADS-B
11:24PM 41.4930 -76.6775 241° Southwest 443 510 32,000  Level FlightAware ADS-B
11:25PM 41.4667 -76.7519 245° Southwest 436 502 32,000  Level FlightAware ADS-B
11:25PM 41.4511 -76.8054 249° West 434 499 32,000  Level FlightAware ADS-B
11:26PM 41.4310 -76.8808 250° West 433 498 32,000  Level FlightAware ADS-B
11:27PM 41.3999 -76.9953 250° West 433 498 32,000  Level FlightAware ADS-B
11:27PM 41.3740 -77.0922 250° West 433 498 32,000  Level FlightAware ADS-B
11:28PM 41.3503 -77.1812 250° West 433 498 32,000  Level FlightAware ADS-B
11:28PM 41.3375 -77.2286 250° West 439 505 32,000  Level New York Center
11:30PM 41.2603 -77.5142 250° West 431 496 32,000  Level Cleveland Center
11:31PM 41.2183 -77.6653 250° West 431 496 32,000  Level Cleveland Center
11:32PM 41.1761 -77.8161 250° West 431 496 32,000  Level Cleveland Center
11:33PM 41.1358 -77.9667 250° West 431 496 32,000  Level Cleveland Center
11:34PM 41.0953 -78.1144 250° West 431 496 32,000  Level Cleveland Center
11:35PM 41.0567 -78.2589 251° West 431 496 32,000  Level Cleveland Center
11:36PM 41.0136 -78.4064 249° West 431 496 32,000  Level Cleveland Center
11:37PM 40.9747 -78.5533 251° West 431 496 32,000  Level Cleveland Center
11:38PM 40.9314 -78.6978 248° West 431 496 32,000  Level Cleveland Center
11:43PM 40.7150 -79.4450 248° West 413 475 32,000  Level FlightAware
11:44PM 40.6820 -79.5570 249° West 410 472 32,000  Level FlightAware
11:46PM 40.6070 -79.8100 249° West 404 465 32,000  Level FlightAware
11:47PM 40.5810 -79.9000 249° West 402 463 32,000  Level FlightAware
11:47PM 40.5530 -79.9930 248° West 400 460 32,000  Level FlightAware
11:48PM 40.5230 -80.0940 249° West 399 459 32,000  Level FlightAware
11:49PM 40.4950 -80.1860 248° West 397 457 32,000  Level FlightAware
11:49PM 40.4690 -80.2720 248° West 395 455 32,000  Level FlightAware
11:50PM 40.4380 -80.3750 248° West 395 455 32,000  Level FlightAware
11:51PM 40.4110 -80.4630 248° West 394 453 32,000  Level FlightAware
11:51PM 40.3810 -80.5640 249° West 393 452 32,000  Level FlightAware
11:52PM 40.3530 -80.6550 248° West 393 452 32,000  Level FlightAware
11:53PM 40.3230 -80.7530 248° West 394 453 32,000  Level FlightAware
11:54PM 40.2950 -80.8430 248° West 394 453 32,000  Level FlightAware
11:54PM 40.2680 -80.9310 248° West 394 453 32,000  Level FlightAware
11:55PM 40.2370 -81.0320 248° West 394 453 32,000  Level FlightAware
11:56PM 40.2100 -81.1170 247° West 394 453 32,000  Level FlightAware
11:56PM 40.1790 -81.2170 248° West 395 455 32,000  Level FlightAware
11:57PM 40.1510 -81.3070 248° West 395 455 32,000  Level FlightAware
11:58PM 40.1230 -81.3950 247° West 395 455 32,000  Level FlightAware
11:58PM 40.0920 -81.4930 248° West 394 453 32,000  Level FlightAware
11:59PM 40.0640 -81.5810 247° West 394 453 32,000  Level FlightAware
12:00AM 40.0320 -81.6820 248° West 394 453 32,000  Level FlightAware
12:01AM 40.0040 -81.7700 247° West 395 455 32,000  Level FlightAware
12:01AM 39.9760 -81.8580 247° West 395 455 32,000  Level FlightAware
12:02AM 39.9440 -81.9570 247° West 396 456 32,000  Level FlightAware
12:03AM 39.9150 -82.0490 248° West 397 457 32,000  Level FlightAware
12:03AM 39.8830 -82.1450 247° West 397 457 32,000  Level FlightAware
12:04AM 39.8550 -82.2330 248° West 397 457 32,000  Level FlightAware
12:05AM 39.8220 -82.3360 247° West 398 458 32,000  Level FlightAware
12:05AM 39.7970 -82.4100 246° West 398 458 32,000  Level FlightAware
12:06AM 39.7680 -82.4990 247° West 398 458 32,000  Level FlightAware
12:07AM 39.7390 -82.5870 247° West 400 460 32,000  Level FlightAware
12:07AM 39.7070 -82.6850 247° West 401 461 32,000  Level FlightAware
12:08AM 39.6760 -82.7770 246° West 401 461 32,000  Level FlightAware
12:09AM 39.6510 -82.8530 247° West 402 463 32,000  Level FlightAware
12:09AM 39.6210 -82.9420 246° West 402 463 32,000  Level FlightAware
12:10AM 39.5720 -83.0890 247° West 403 464 32,000  Level FlightAware
12:11AM 39.5430 -83.1770 247° West 402 463 32,000  Level FlightAware
12:12AM 39.5150 -83.2580 246° West 401 461 32,000 -360 Level FlightAware
12:13AM 39.4800 -83.3630 247° West 401 461 31,500 -840 Descending FlightAware
12:13AM 39.4460 -83.4650 247° West 407 468 30,800 -960 Descending FlightAware
12:14AM 39.4150 -83.5560 246° West 412 474 30,200 -600 Descending FlightAware
12:15AM 39.3800 -83.6560 246° West 414 476 30,000 -180 Descending FlightAware
12:15AM 39.3490 -83.7470 246° West 416 479 30,000  Level FlightAware
12:16AM 39.3180 -83.8380 246° West 418 481 30,000  Level FlightAware
12:17AM 39.2840 -83.9380 246° West 418 481 30,000  Level FlightAware
12:17AM 39.2510 -84.0330 246° West 418 481 30,000  Level FlightAware
12:18AM 39.2180 -84.1260 245° Southwest 418 481 30,000  Level FlightAware
12:19AM 39.1900 -84.2030 245° Southwest 418 481 30,000  Level FlightAware
12:20AM 39.1620 -84.2800 245° Southwest 418 481 30,000  Level FlightAware
12:20AM 39.1350 -84.3570 246° West 418 481 30,000  Level FlightAware
12:21AM 39.1000 -84.4530 245° Southwest 418 481 30,000  Level FlightAware
12:22AM 39.0720 -84.5300 245° Southwest 418 481 30,000 -3,480 Level FlightAware
12:22AM 39.0120 -84.7000 246° West 432 497 25,400 -5,880 Descending FlightAware
12:23AM 38.9600 -84.7590 221° Southwest 438 504 22,700 -2,040 Descending FlightAware
12:24AM 38.8950 -84.8210 217° Southwest 438 504 22,700  Level FlightAware
12:24AM 38.8400 -84.8740 217° Southwest 438 504 22,700  Level FlightAware
12:25AM 38.7720 -84.9410 218° Southwest 438 504 22,700  Level FlightAware
12:26AM 38.7170 -84.9940 217° Southwest 438 504 22,700  Level FlightAware
12:27AM 38.6620 -85.0470 217° Southwest 438 504 22,700 -8,400 Level FlightAware
12:27AM 38.5740 -85.1300 216° Southwest 401 461 11,500 -7,140 Descending FlightAware
12:28AM 38.4930 -85.2070 217° Southwest 370 426 10,800 -960 Descending FlightAware
12:28AM 38.4800 -85.2350 239° Southwest 336 387 10,300 -1,200 Descending FlightAware
12:29AM 38.4580 -85.3090 249° West 308 354 9,700 -720 Descending FlightAware
12:30AM 38.4450 -85.3570 251° West 284 327 9,500 -900 Descending FlightAware
12:30AM 38.4340 -85.3990 252° West 279 321 8,900 -1,320 Descending FlightAware
12:30AM 38.4220 -85.4300 244° Southwest 275 316 8,400 -1,320 Descending FlightAware
12:31AM 38.4050 -85.4690 241° Southwest 268 308 7,800 -1,320 Descending FlightAware
12:31AM 38.3880 -85.5090 242° Southwest 262 302 7,200 -1,140 Descending FlightAware
12:32AM 38.3690 -85.5480 238° Southwest 256 295 6,700 -780 Descending FlightAware
12:32AM 38.3630 -85.5610 240° Southwest 257 296 6,700  Level FlightAware
12:33AM 38.3430 -85.6010 237° Southwest 258 297 6,700  Level FlightAware
12:33AM 38.3250 -85.6400 240° Southwest 259 298 6,700  Level FlightAware
12:33AM 38.3100 -85.6720 239° Southwest 260 299 6,700  Level FlightAware
12:34AM 38.2810 -85.7350 240° Southwest 259 298 6,700 -360 Level FlightAware
12:35AM 38.2680 -85.7630 239° Southwest 253 291 6,300 -1,140 Descending FlightAware
12:35AM 38.2500 -85.8010 239° Southwest 250 288 5,700 -720 Descending FlightAware
12:35AM 38.2380 -85.8280 241° Southwest 250 288 5,700  Level FlightAware
12:36AM 38.2210 -85.8500 225° Southwest 248 285 5,700 -360 Level FlightAware
12:36AM 38.2040 -85.8550 193° South 245 282 5,500 -1,200 Descending FlightAware
12:37AM 38.1710 -85.8420 163° South 251 289 4,800 -1,020 Descending FlightAware
12:37AM 38.1450 -85.8300 160° South 249 287 4,600 -120 Descending FlightAware
12:37AM 38.1140 -85.8160 160° South 220 253 4,700 60 Climbing FlightAware
12:38AM 38.0910 -85.8060 161° South 211 243 4,700  Level FlightAware
12:38AM 38.0770 -85.7990 159° South 212 244 4,700  Level FlightAware
12:39AM 38.0530 -85.7890 162° South 213 245 4,700  Level FlightAware
12:39AM 38.0250 -85.7770 161° South 212 244 4,700  Level FlightAware
12:40AM 37.9980 -85.7680 165° South 210 242 4,700 -360 Level FlightAware
12:40AM 37.9740 -85.7600 165° South 206 237 4,400 -1,020 Descending FlightAware
12:40AM 37.9490 -85.7460 156° South 212 244 3,800 -960 Descending FlightAware
12:41AM 37.9420 -85.7290 118° Southeast 219 252 3,700 -180 Descending FlightAware
12:41AM 37.9510 -85.6980 70° East 226 260 3,700  Level FlightAware
12:41AM 37.9640 -85.6890 29° Northeast 226 260 3,700  Level FlightAware
12:42AM 37.9800 -85.6840 14° North 211 243 3,700 -180 Level FlightAware
12:42AM 38.0060 -85.6890 351° North 191 220 3,600 -660 Descending FlightAware
12:43AM 38.0280 -85.6960 346° North 190 219 3,100 -1,200 Descending FlightAware
12:43AM 38.0530 -85.7050 344° North 186 214 2,500 -1,320 Descending FlightAware
12:43AM 38.0740 -85.7120 345° North 171 197 1,900 -1,200 Descending FlightAware
12:44AM 38.0960 -85.7190 346° North 150 173 1,400 -900 Descending FlightAware
12:44AM 38.1120 -85.7240 346° North 138 159 1,100 -780 Descending FlightAware
12:45AM 38.1300 -85.7300 345° North 136 157 700 -840 Descending FlightAware
12:45AM 38.1390 -85.7330 345° North 134 154 500 -720 Descending FlightAware
12:46AM 38.1560 -85.7390 344° North 129 148 200 -600 Descending FlightAware